sensor_id;sensor_type;location;lat;lon;timestamp;temperature;humidity
75719;DHT22;64340;48.534;-3.036;2023-02-13T00:01:02;14.70;59.40
75719;DHT22;64340;48.534;-3.036;2023-02-13T00:03:31;14.70;59.10
75719;DHT22;64340;48.534;-3.036;2023-02-13T00:05:57;14.60;59.30
75719;DHT22;64340;48.534;-3.036;2023-02-13T00:08:23;14.60;59.10
75719;DHT22;64340;48.534;-3.036;2023-02-13T00:10:49;14.60;58.80
75719;DHT22;64340;48.534;-3.036;2023-02-13T00:13:15;14.60;58.90
75719;DHT22;64340;48.534;-3.036;2023-02-13T00:15:41;14.50;58.30
75719;DHT22;64340;48.534;-3.036;2023-02-13T00:18:06;14.50;58.60
75719;DHT22;64340;48.534;-3.036;2023-02-13T00:20:34;14.50;58.20
75719;DHT22;64340;48.534;-3.036;2023-02-13T00:23:00;14.50;58.20
75719;DHT22;64340;48.534;-3.036;2023-02-13T00:25:29;14.40;58.50
75719;DHT22;64340;48.534;-3.036;2023-02-13T00:27:55;14.40;58.50
75719;DHT22;64340;48.534;-3.036;2023-02-13T00:30:21;14.40;58.20
75719;DHT22;64340;48.534;-3.036;2023-02-13T00:32:47;14.40;58.10
75719;DHT22;64340;48.534;-3.036;2023-02-13T00:35:14;14.30;57.70
75719;DHT22;64340;48.534;-3.036;2023-02-13T00:37:40;14.30;57.50
75719;DHT22;64340;48.534;-3.036;2023-02-13T00:40:06;14.30;58.00
75719;DHT22;64340;48.534;-3.036;2023-02-13T00:42:32;14.30;57.90
75719;DHT22;64340;48.534;-3.036;2023-02-13T00:44:57;14.30;58.10
75719;DHT22;64340;48.534;-3.036;2023-02-13T00:47:23;14.30;57.70
75719;DHT22;64340;48.534;-3.036;2023-02-13T00:49:48;14.20;58.00
75719;DHT22;64340;48.534;-3.036;2023-02-13T00:52:14;14.20;57.60
75719;DHT22;64340;48.534;-3.036;2023-02-13T00:54:40;14.20;58.20
75719;DHT22;64340;48.534;-3.036;2023-02-13T00:57:06;14.20;57.50
75719;DHT22;64340;48.534;-3.036;2023-02-13T00:59:32;14.10;58.10
75719;DHT22;64340;48.534;-3.036;2023-02-13T01:01:58;14.10;58.00
75719;DHT22;64340;48.534;-3.036;2023-02-13T01:04:23;14.10;58.50
75719;DHT22;64340;48.534;-3.036;2023-02-13T01:06:50;14.10;58.00
75719;DHT22;64340;48.534;-3.036;2023-02-13T01:09:16;14.10;58.00
75719;DHT22;64340;48.534;-3.036;2023-02-13T01:11:42;14.10;57.60
75719;DHT22;64340;48.534;-3.036;2023-02-13T01:14:07;14.10;57.60
75719;DHT22;64340;48.534;-3.036;2023-02-13T01:16:33;14.00;57.40
75719;DHT22;64340;48.534;-3.036;2023-02-13T01:18:58;14.00;57.60
75719;DHT22;64340;48.534;-3.036;2023-02-13T01:21:24;14.00;57.50
75719;DHT22;64340;48.534;-3.036;2023-02-13T01:23:50;14.00;57.60
75719;DHT22;64340;48.534;-3.036;2023-02-13T01:26:18;13.90;57.60
75719;DHT22;64340;48.534;-3.036;2023-02-13T01:28:44;13.90;57.00
75719;DHT22;64340;48.534;-3.036;2023-02-13T01:31:09;13.90;57.00
75719;DHT22;64340;48.534;-3.036;2023-02-13T01:33:35;13.90;57.30
75719;DHT22;64340;48.534;-3.036;2023-02-13T01:36:07;13.90;57.10
75719;DHT22;64340;48.534;-3.036;2023-02-13T01:38:33;13.90;57.20
75719;DHT22;64340;48.534;-3.036;2023-02-13T01:40:59;13.90;57.10
75719;DHT22;64340;48.534;-3.036;2023-02-13T01:43:40;13.90;57.20
75719;DHT22;64340;48.534;-3.036;2023-02-13T01:46:06;13.90;57.30
75719;DHT22;64340;48.534;-3.036;2023-02-13T01:48:32;13.80;57.20
75719;DHT22;64340;48.534;-3.036;2023-02-13T01:51:06;13.80;57.30
75719;DHT22;64340;48.534;-3.036;2023-02-13T01:53:34;13.80;57.20
75719;DHT22;64340;48.534;-3.036;2023-02-13T01:56:17;13.70;57.10
75719;DHT22;64340;48.534;-3.036;2023-02-13T01:58:45;13.70;57.30
75719;DHT22;64340;48.534;-3.036;2023-02-13T02:01:12;13.70;57.30
75719;DHT22;64340;48.534;-3.036;2023-02-13T02:06:11;13.70;57.00
75719;DHT22;64340;48.534;-3.036;2023-02-13T02:08:38;13.60;57.10
75719;DHT22;64340;48.534;-3.036;2023-02-13T02:11:06;13.60;56.90
75719;DHT22;64340;48.534;-3.036;2023-02-13T02:13:33;13.60;56.90
75719;DHT22;64340;48.534;-3.036;2023-02-13T02:15:59;13.60;56.80
75719;DHT22;64340;48.534;-3.036;2023-02-13T02:18:25;13.60;56.90
75719;DHT22;64340;48.534;-3.036;2023-02-13T02:23:42;13.60;57.20
75719;DHT22;64340;48.534;-3.036;2023-02-13T02:36:22;13.50;56.90
75719;DHT22;64340;48.534;-3.036;2023-02-13T02:41:29;13.50;57.00
75719;DHT22;64340;48.534;-3.036;2023-02-13T02:46:48;13.40;56.80
75719;DHT22;64340;48.534;-3.036;2023-02-13T02:49:37;13.40;56.90
75719;DHT22;64340;48.534;-3.036;2023-02-13T02:52:45;13.30;56.90
75719;DHT22;64340;48.534;-3.036;2023-02-13T02:55:13;13.30;56.80
75719;DHT22;64340;48.534;-3.036;2023-02-13T02:57:43;13.30;56.80
75719;DHT22;64340;48.534;-3.036;2023-02-13T03:00:28;13.30;56.80
75719;DHT22;64340;48.534;-3.036;2023-02-13T03:03:34;13.30;56.80
75719;DHT22;64340;48.534;-3.036;2023-02-13T03:06:21;13.30;56.90
75719;DHT22;64340;48.534;-3.036;2023-02-13T03:08:53;13.30;56.80
75719;DHT22;64340;48.534;-3.036;2023-02-13T03:11:37;13.20;56.70
75719;DHT22;64340;48.534;-3.036;2023-02-13T03:14:22;13.20;56.90
75719;DHT22;64340;48.534;-3.036;2023-02-13T03:16:49;13.20;56.80
75719;DHT22;64340;48.534;-3.036;2023-02-13T03:22:29;13.10;56.80
75719;DHT22;64340;48.534;-3.036;2023-02-13T03:24:59;13.10;56.80
75719;DHT22;64340;48.534;-3.036;2023-02-13T03:30:18;13.10;56.90
75719;DHT22;64340;48.534;-3.036;2023-02-13T03:33:35;13.10;56.80
75719;DHT22;64340;48.534;-3.036;2023-02-13T03:35:39;13.10;56.70
75719;DHT22;64340;48.534;-3.036;2023-02-13T03:41:02;13.00;56.90
75719;DHT22;64340;48.534;-3.036;2023-02-13T03:44:26;13.00;56.70
75719;DHT22;64340;48.534;-3.036;2023-02-13T03:46:33;13.00;56.90
75719;DHT22;64340;48.534;-3.036;2023-02-13T03:49:00;13.00;56.90
75719;DHT22;64340;48.534;-3.036;2023-02-13T03:51:48;13.00;57.00
75719;DHT22;64340;48.534;-3.036;2023-02-13T03:54:29;13.00;56.80
75719;DHT22;64340;48.534;-3.036;2023-02-13T03:57:16;13.00;57.00
75719;DHT22;64340;48.534;-3.036;2023-02-13T04:00:04;13.00;56.90
75719;DHT22;64340;48.534;-3.036;2023-02-13T04:02:32;13.00;57.10
75719;DHT22;64340;48.534;-3.036;2023-02-13T04:05:03;12.90;57.00
75719;DHT22;64340;48.534;-3.036;2023-02-13T04:07:29;12.90;56.90
75719;DHT22;64340;48.534;-3.036;2023-02-13T04:10:00;12.90;57.10
75719;DHT22;64340;48.534;-3.036;2023-02-13T04:12:47;12.90;56.90
75719;DHT22;64340;48.534;-3.036;2023-02-13T04:15:16;12.90;57.10
75719;DHT22;64340;48.534;-3.036;2023-02-13T04:17:54;12.90;57.00
75719;DHT22;64340;48.534;-3.036;2023-02-13T04:20:25;12.90;57.10
75719;DHT22;64340;48.534;-3.036;2023-02-13T04:22:50;12.90;57.00
75719;DHT22;64340;48.534;-3.036;2023-02-13T04:25:16;12.80;57.10
75719;DHT22;64340;48.534;-3.036;2023-02-13T04:27:42;12.80;56.90
75719;DHT22;64340;48.534;-3.036;2023-02-13T04:30:08;12.80;57.20
75719;DHT22;64340;48.534;-3.036;2023-02-13T04:32:34;12.80;57.00
75719;DHT22;64340;48.534;-3.036;2023-02-13T04:34:59;12.80;56.90
75719;DHT22;64340;48.534;-3.036;2023-02-13T04:37:25;12.80;57.00
75719;DHT22;64340;48.534;-3.036;2023-02-13T04:39:50;12.80;57.00
75719;DHT22;64340;48.534;-3.036;2023-02-13T04:42:16;12.70;57.00
75719;DHT22;64340;48.534;-3.036;2023-02-13T04:44:42;12.70;56.90
75719;DHT22;64340;48.534;-3.036;2023-02-13T04:47:07;12.70;57.00
75719;DHT22;64340;48.534;-3.036;2023-02-13T04:49:33;12.70;56.90
75719;DHT22;64340;48.534;-3.036;2023-02-13T04:51:58;12.70;56.80
75719;DHT22;64340;48.534;-3.036;2023-02-13T04:54:24;12.70;57.20
75719;DHT22;64340;48.534;-3.036;2023-02-13T04:56:50;12.70;56.90
75719;DHT22;64340;48.534;-3.036;2023-02-13T04:59:15;12.60;57.00
75719;DHT22;64340;48.534;-3.036;2023-02-13T05:01:41;12.60;56.90
75719;DHT22;64340;48.534;-3.036;2023-02-13T05:04:06;12.60;56.80
75719;DHT22;64340;48.534;-3.036;2023-02-13T05:06:32;12.60;56.80
75719;DHT22;64340;48.534;-3.036;2023-02-13T05:08:57;12.50;57.00
75719;DHT22;64340;48.534;-3.036;2023-02-13T05:11:23;12.50;57.20
75719;DHT22;64340;48.534;-3.036;2023-02-13T05:13:49;12.50;57.20
75719;DHT22;64340;48.534;-3.036;2023-02-13T05:16:14;12.50;56.90
75719;DHT22;64340;48.534;-3.036;2023-02-13T05:18:40;12.70;57.20
75719;DHT22;64340;48.534;-3.036;2023-02-13T05:21:05;12.70;57.70
75719;DHT22;64340;48.534;-3.036;2023-02-13T05:23:49;12.60;57.20
75719;DHT22;64340;48.534;-3.036;2023-02-13T05:26:15;12.60;57.00
75719;DHT22;64340;48.534;-3.036;2023-02-13T05:28:41;12.60;56.90
75719;DHT22;64340;48.534;-3.036;2023-02-13T05:31:25;12.50;58.00
75719;DHT22;64340;48.534;-3.036;2023-02-13T05:33:50;12.50;58.40
75719;DHT22;64340;48.534;-3.036;2023-02-13T05:36:16;12.50;58.20
75719;DHT22;64340;48.534;-3.036;2023-02-13T05:38:41;12.50;58.10
75719;DHT22;64340;48.534;-3.036;2023-02-13T05:41:07;12.50;58.10
75719;DHT22;64340;48.534;-3.036;2023-02-13T05:43:32;12.50;58.00
75719;DHT22;64340;48.534;-3.036;2023-02-13T05:46:05;12.50;58.00
75719;DHT22;64340;48.534;-3.036;2023-02-13T05:48:31;12.50;58.70
75719;DHT22;64340;48.534;-3.036;2023-02-13T05:50:56;12.50;57.90
75719;DHT22;64340;48.534;-3.036;2023-02-13T05:53:22;12.50;58.20
75719;DHT22;64340;48.534;-3.036;2023-02-13T05:55:48;12.50;61.00
75719;DHT22;64340;48.534;-3.036;2023-02-13T05:58:17;12.50;60.60
75719;DHT22;64340;48.534;-3.036;2023-02-13T06:00:42;12.50;60.70
75719;DHT22;64340;48.534;-3.036;2023-02-13T06:03:08;12.40;60.90
75719;DHT22;64340;48.534;-3.036;2023-02-13T06:05:33;12.30;60.70
75719;DHT22;64340;48.534;-3.036;2023-02-13T06:07:59;12.30;60.70
75719;DHT22;64340;48.534;-3.036;2023-02-13T06:10:24;12.30;60.70
75719;DHT22;64340;48.534;-3.036;2023-02-13T06:12:50;12.20;60.60
75719;DHT22;64340;48.534;-3.036;2023-02-13T06:15:16;12.20;60.60
75719;DHT22;64340;48.534;-3.036;2023-02-13T06:17:41;12.20;60.40
75719;DHT22;64340;48.534;-3.036;2023-02-13T06:20:07;12.10;60.20
75719;DHT22;64340;48.534;-3.036;2023-02-13T06:22:33;12.10;60.10
75719;DHT22;64340;48.534;-3.036;2023-02-13T06:24:58;12.10;60.00
75719;DHT22;64340;48.534;-3.036;2023-02-13T06:27:24;12.10;59.70
75719;DHT22;64340;48.534;-3.036;2023-02-13T06:29:49;12.00;59.40
75719;DHT22;64340;48.534;-3.036;2023-02-13T06:32:15;12.00;59.20
75719;DHT22;64340;48.534;-3.036;2023-02-13T06:34:41;12.00;58.90
75719;DHT22;64340;48.534;-3.036;2023-02-13T06:37:06;12.00;58.80
75719;DHT22;64340;48.534;-3.036;2023-02-13T06:39:32;11.90;58.60
75719;DHT22;64340;48.534;-3.036;2023-02-13T06:41:57;11.90;58.50
75719;DHT22;64340;48.534;-3.036;2023-02-13T06:44:23;11.90;58.30
75719;DHT22;64340;48.534;-3.036;2023-02-13T06:46:48;11.90;58.00
75719;DHT22;64340;48.534;-3.036;2023-02-13T06:49:14;11.90;58.00
75719;DHT22;64340;48.534;-3.036;2023-02-13T06:51:39;11.80;57.80
75719;DHT22;64340;48.534;-3.036;2023-02-13T06:54:05;11.80;57.80
75719;DHT22;64340;48.534;-3.036;2023-02-13T06:56:31;11.70;57.70
75719;DHT22;64340;48.534;-3.036;2023-02-13T06:58:57;11.70;57.60
75719;DHT22;64340;48.534;-3.036;2023-02-13T07:01:22;11.70;57.50
75719;DHT22;64340;48.534;-3.036;2023-02-13T07:03:48;11.70;57.40
75719;DHT22;64340;48.534;-3.036;2023-02-13T07:06:17;11.70;57.30
75719;DHT22;64340;48.534;-3.036;2023-02-13T07:08:43;11.70;57.30
75719;DHT22;64340;48.534;-3.036;2023-02-13T07:11:15;11.60;56.80
75719;DHT22;64340;48.534;-3.036;2023-02-13T07:13:41;11.50;56.70
75719;DHT22;64340;48.534;-3.036;2023-02-13T07:16:07;11.50;56.20
75719;DHT22;64340;48.534;-3.036;2023-02-13T07:18:32;11.50;56.10
75719;DHT22;64340;48.534;-3.036;2023-02-13T07:20:58;11.50;55.90
75719;DHT22;64340;48.534;-3.036;2023-02-13T07:23:23;11.50;55.70
75719;DHT22;64340;48.534;-3.036;2023-02-13T07:25:49;11.50;55.50
75719;DHT22;64340;48.534;-3.036;2023-02-13T07:28:14;11.40;55.40
75719;DHT22;64340;48.534;-3.036;2023-02-13T07:30:40;11.40;55.10
75719;DHT22;64340;48.534;-3.036;2023-02-13T07:33:06;11.20;55.10
75719;DHT22;64340;48.534;-3.036;2023-02-13T07:35:31;11.30;55.10
75719;DHT22;64340;48.534;-3.036;2023-02-13T07:37:57;11.30;55.00
75719;DHT22;64340;48.534;-3.036;2023-02-13T07:40:24;11.40;55.10
75719;DHT22;64340;48.534;-3.036;2023-02-13T07:42:50;11.50;55.10
75719;DHT22;64340;48.534;-3.036;2023-02-13T07:45:17;11.50;55.10
75719;DHT22;64340;48.534;-3.036;2023-02-13T07:47:43;11.50;55.00
75719;DHT22;64340;48.534;-3.036;2023-02-13T07:50:09;11.50;55.20
75719;DHT22;64340;48.534;-3.036;2023-02-13T07:52:35;11.50;55.20
75719;DHT22;64340;48.534;-3.036;2023-02-13T07:55:02;11.50;55.10
75719;DHT22;64340;48.534;-3.036;2023-02-13T07:57:28;11.50;55.10
75719;DHT22;64340;48.534;-3.036;2023-02-13T07:59:55;11.50;55.10
75719;DHT22;64340;48.534;-3.036;2023-02-13T08:02:21;11.50;55.20
75719;DHT22;64340;48.534;-3.036;2023-02-13T08:04:47;11.60;55.00
75719;DHT22;64340;48.534;-3.036;2023-02-13T08:07:15;11.50;55.10
75719;DHT22;64340;48.534;-3.036;2023-02-13T08:09:42;11.50;55.20
75719;DHT22;64340;48.534;-3.036;2023-02-13T08:12:28;11.60;55.10
75719;DHT22;64340;48.534;-3.036;2023-02-13T08:14:54;11.60;55.00
75719;DHT22;64340;48.534;-3.036;2023-02-13T08:17:23;11.60;55.10
75719;DHT22;64340;48.534;-3.036;2023-02-13T08:19:49;11.60;55.10
75719;DHT22;64340;48.534;-3.036;2023-02-13T08:22:16;11.70;55.00
75719;DHT22;64340;48.534;-3.036;2023-02-13T08:24:42;11.60;55.00
75719;DHT22;64340;48.534;-3.036;2023-02-13T08:27:14;11.60;55.00
75719;DHT22;64340;48.534;-3.036;2023-02-13T08:29:43;11.70;55.00
75719;DHT22;64340;48.534;-3.036;2023-02-13T08:32:09;11.60;55.00
75719;DHT22;64340;48.534;-3.036;2023-02-13T08:34:37;11.70;55.00
75719;DHT22;64340;48.534;-3.036;2023-02-13T08:37:04;11.70;55.10
75719;DHT22;64340;48.534;-3.036;2023-02-13T08:39:31;11.70;55.00
75719;DHT22;64340;48.534;-3.036;2023-02-13T08:41:57;11.70;55.00
75719;DHT22;64340;48.534;-3.036;2023-02-13T08:44:26;11.70;54.90
75719;DHT22;64340;48.534;-3.036;2023-02-13T08:46:53;11.70;54.80
75719;DHT22;64340;48.534;-3.036;2023-02-13T08:49:19;11.70;55.10
75719;DHT22;64340;48.534;-3.036;2023-02-13T08:51:49;11.70;55.10
75719;DHT22;64340;48.534;-3.036;2023-02-13T08:54:15;11.70;55.20
75719;DHT22;64340;48.534;-3.036;2023-02-13T08:56:41;11.70;55.20
75719;DHT22;64340;48.534;-3.036;2023-02-13T08:59:08;11.70;55.30
75719;DHT22;64340;48.534;-3.036;2023-02-13T09:01:35;11.70;55.80
75719;DHT22;64340;48.534;-3.036;2023-02-13T09:04:01;11.90;55.50
75719;DHT22;64340;48.534;-3.036;2023-02-13T09:06:27;11.90;55.80
75719;DHT22;64340;48.534;-3.036;2023-02-13T09:08:53;11.90;55.90
75719;DHT22;64340;48.534;-3.036;2023-02-13T09:11:18;11.80;56.20
75719;DHT22;64340;48.534;-3.036;2023-02-13T09:13:47;11.80;56.50
75719;DHT22;64340;48.534;-3.036;2023-02-13T09:16:14;11.90;56.50
75719;DHT22;64340;48.534;-3.036;2023-02-13T09:18:40;11.90;56.70
75719;DHT22;64340;48.534;-3.036;2023-02-13T09:21:06;11.90;56.70
75719;DHT22;64340;48.534;-3.036;2023-02-13T09:23:33;11.90;56.90
75719;DHT22;64340;48.534;-3.036;2023-02-13T09:25:59;11.90;56.90
75719;DHT22;64340;48.534;-3.036;2023-02-13T09:28:26;11.90;56.90
75719;DHT22;64340;48.534;-3.036;2023-02-13T09:30:52;11.90;57.00
75719;DHT22;64340;48.534;-3.036;2023-02-13T09:33:17;11.90;57.10
75719;DHT22;64340;48.534;-3.036;2023-02-13T09:35:43;12.00;57.10
75719;DHT22;64340;48.534;-3.036;2023-02-13T09:38:08;12.00;57.10
75719;DHT22;64340;48.534;-3.036;2023-02-13T09:40:36;12.00;57.10
75719;DHT22;64340;48.534;-3.036;2023-02-13T09:43:10;12.00;57.10
75719;DHT22;64340;48.534;-3.036;2023-02-13T09:45:37;12.10;57.10
75719;DHT22;64340;48.534;-3.036;2023-02-13T09:48:03;12.10;57.20
75719;DHT22;64340;48.534;-3.036;2023-02-13T09:50:30;12.10;57.10
75719;DHT22;64340;48.534;-3.036;2023-02-13T09:52:56;12.20;57.20
75719;DHT22;64340;48.534;-3.036;2023-02-13T09:55:26;12.20;57.20
75719;DHT22;64340;48.534;-3.036;2023-02-13T10:00:20;12.20;57.20
75719;DHT22;64340;48.534;-3.036;2023-02-13T10:05:27;12.20;57.20
75719;DHT22;64340;48.534;-3.036;2023-02-13T10:08:17;12.30;57.20
75719;DHT22;64340;48.534;-3.036;2023-02-13T10:10:59;12.30;57.30
75719;DHT22;64340;48.534;-3.036;2023-02-13T10:13:42;12.30;57.30
75719;DHT22;64340;48.534;-3.036;2023-02-13T10:16:15;12.30;57.20
75719;DHT22;64340;48.534;-3.036;2023-02-13T10:18:50;12.50;57.40
75719;DHT22;64340;48.534;-3.036;2023-02-13T10:21:19;12.60;57.80
75719;DHT22;64340;48.534;-3.036;2023-02-13T10:26:16;12.70;57.30
75719;DHT22;64340;48.534;-3.036;2023-02-13T10:28:55;12.70;57.60
75719;DHT22;64340;48.534;-3.036;2023-02-13T10:31:41;12.70;58.20
75719;DHT22;64340;48.534;-3.036;2023-02-13T10:34:13;12.80;58.20
75719;DHT22;64340;48.534;-3.036;2023-02-13T10:36:42;12.80;58.30
75719;DHT22;64340;48.534;-3.036;2023-02-13T10:39:14;12.80;58.20
75719;DHT22;64340;48.534;-3.036;2023-02-13T10:41:53;12.90;58.00
75719;DHT22;64340;48.534;-3.036;2023-02-13T10:44:33;12.90;58.00
75719;DHT22;64340;48.534;-3.036;2023-02-13T10:47:23;12.80;57.70
75719;DHT22;64340;48.534;-3.036;2023-02-13T10:55:18;12.50;58.30
75719;DHT22;64340;48.534;-3.036;2023-02-13T11:02:39;12.50;58.10
75719;DHT22;64340;48.534;-3.036;2023-02-13T11:05:21;12.40;58.40
75719;DHT22;64340;48.534;-3.036;2023-02-13T11:07:48;12.40;58.50
75719;DHT22;64340;48.534;-3.036;2023-02-13T11:10:18;12.30;58.90
75719;DHT22;64340;48.534;-3.036;2023-02-13T11:12:44;12.40;57.90
75719;DHT22;64340;48.534;-3.036;2023-02-13T11:17:51;12.50;55.60
75719;DHT22;64340;48.534;-3.036;2023-02-13T11:20:25;12.70;54.90
75719;DHT22;64340;48.534;-3.036;2023-02-13T11:22:51;12.70;54.20
75719;DHT22;64340;48.534;-3.036;2023-02-13T11:25:19;12.80;54.70
75719;DHT22;64340;48.534;-3.036;2023-02-13T11:27:45;13.00;55.10
75719;DHT22;64340;48.534;-3.036;2023-02-13T11:32:59;13.10;55.50
75719;DHT22;64340;48.534;-3.036;2023-02-13T11:35:30;13.30;51.80
75719;DHT22;64340;48.534;-3.036;2023-02-13T11:40:49;13.40;49.40
75719;DHT22;64340;48.534;-3.036;2023-02-13T11:43:28;13.30;49.00
75719;DHT22;64340;48.534;-3.036;2023-02-13T11:46:01;13.20;48.70
75719;DHT22;64340;48.534;-3.036;2023-02-13T11:48:27;13.30;47.50
75719;DHT22;64340;48.534;-3.036;2023-02-13T11:50:53;13.30;48.40
75719;DHT22;64340;48.534;-3.036;2023-02-13T11:53:21;13.40;49.10
75719;DHT22;64340;48.534;-3.036;2023-02-13T11:56:00;13.50;48.20
75719;DHT22;64340;48.534;-3.036;2023-02-13T11:58:27;13.60;48.30
75719;DHT22;64340;48.534;-3.036;2023-02-13T12:03:34;13.90;48.60
75719;DHT22;64340;48.534;-3.036;2023-02-13T12:06:01;13.90;49.70
75719;DHT22;64340;48.534;-3.036;2023-02-13T12:08:28;14.00;50.40
75719;DHT22;64340;48.534;-3.036;2023-02-13T12:10:54;14.10;45.40
75719;DHT22;64340;48.534;-3.036;2023-02-13T12:13:24;14.00;45.70
75719;DHT22;64340;48.534;-3.036;2023-02-13T12:15:54;14.10;46.00
75719;DHT22;64340;48.534;-3.036;2023-02-13T12:19:05;14.10;47.10
75719;DHT22;64340;48.534;-3.036;2023-02-13T12:26:31;14.30;49.00
75719;DHT22;64340;48.534;-3.036;2023-02-13T12:31:47;14.40;46.80
75719;DHT22;64340;48.534;-3.036;2023-02-13T12:36:57;14.40;46.00
75719;DHT22;64340;48.534;-3.036;2023-02-13T12:47:05;14.40;45.30
75719;DHT22;64340;48.534;-3.036;2023-02-13T13:02:48;14.50;44.40
75719;DHT22;64340;48.534;-3.036;2023-02-13T13:23:12;14.60;47.20
75719;DHT22;64340;48.534;-3.036;2023-02-13T13:25:56;14.60;48.00
75719;DHT22;64340;48.534;-3.036;2023-02-13T13:28:22;14.60;48.50
75719;DHT22;64340;48.534;-3.036;2023-02-13T13:30:49;14.60;49.10
75719;DHT22;64340;48.534;-3.036;2023-02-13T13:33:17;14.60;49.30
75719;DHT22;64340;48.534;-3.036;2023-02-13T13:35:49;14.70;49.70
75719;DHT22;64340;48.534;-3.036;2023-02-13T13:38:23;14.70;47.90
75719;DHT22;64340;48.534;-3.036;2023-02-13T13:43:32;14.80;47.40
75719;DHT22;64340;48.534;-3.036;2023-02-13T13:48:49;14.80;45.10
75719;DHT22;64340;48.534;-3.036;2023-02-13T13:51:18;14.80;45.90
75719;DHT22;64340;48.534;-3.036;2023-02-13T13:56:25;14.80;46.60
75719;DHT22;64340;48.534;-3.036;2023-02-13T13:58:50;14.80;45.60
75719;DHT22;64340;48.534;-3.036;2023-02-13T14:01:23;14.70;46.50
75719;DHT22;64340;48.534;-3.036;2023-02-13T14:03:53;14.70;47.30
75719;DHT22;64340;48.534;-3.036;2023-02-13T14:06:20;14.70;46.30
75719;DHT22;64340;48.534;-3.036;2023-02-13T14:08:53;14.90;45.70
75719;DHT22;64340;48.534;-3.036;2023-02-13T14:14:00;14.80;46.70
75719;DHT22;64340;48.534;-3.036;2023-02-13T14:16:37;14.70;47.80
75719;DHT22;64340;48.534;-3.036;2023-02-13T14:19:04;14.70;48.30
75719;DHT22;64340;48.534;-3.036;2023-02-13T14:21:30;14.70;49.10
75719;DHT22;64340;48.534;-3.036;2023-02-13T14:23:56;14.70;49.70
75719;DHT22;64340;48.534;-3.036;2023-02-13T14:26:32;14.70;49.60
75719;DHT22;64340;48.534;-3.036;2023-02-13T14:31:41;14.80;50.40
75719;DHT22;64340;48.534;-3.036;2023-02-13T14:36:36;14.60;50.00
75719;DHT22;64340;48.534;-3.036;2023-02-13T14:39:03;14.50;50.60
75719;DHT22;64340;48.534;-3.036;2023-02-13T14:44:25;14.60;51.00
75719;DHT22;64340;48.534;-3.036;2023-02-13T14:46:55;14.70;50.90
75719;DHT22;64340;48.534;-3.036;2023-02-13T14:49:28;14.80;51.00
75719;DHT22;64340;48.534;-3.036;2023-02-13T14:52:37;14.80;51.20
75719;DHT22;64340;48.534;-3.036;2023-02-13T14:54:47;14.70;52.00
75719;DHT22;64340;48.534;-3.036;2023-02-13T14:59:43;14.70;51.90
75719;DHT22;64340;48.534;-3.036;2023-02-13T15:04:45;14.60;52.50
75719;DHT22;64340;48.534;-3.036;2023-02-13T15:07:17;14.50;52.70
75719;DHT22;64340;48.534;-3.036;2023-02-13T15:09:54;14.50;52.90
75719;DHT22;64340;48.534;-3.036;2023-02-13T15:12:24;14.70;53.20
75719;DHT22;64340;48.534;-3.036;2023-02-13T15:14:49;14.80;53.10
75719;DHT22;64340;48.534;-3.036;2023-02-13T15:17:22;14.90;53.20
75719;DHT22;64340;48.534;-3.036;2023-02-13T15:19:52;15.00;53.10
75719;DHT22;64340;48.534;-3.036;2023-02-13T15:24:52;15.20;53.10
75719;DHT22;64340;48.534;-3.036;2023-02-13T15:27:20;15.30;53.10
75719;DHT22;64340;48.534;-3.036;2023-02-13T15:32:34;15.50;53.20
75719;DHT22;64340;48.534;-3.036;2023-02-13T15:35:01;15.60;53.20
75719;DHT22;64340;48.534;-3.036;2023-02-13T15:37:34;15.60;52.90
75719;DHT22;64340;48.534;-3.036;2023-02-13T15:40:13;15.40;53.10
75719;DHT22;64340;48.534;-3.036;2023-02-13T15:42:39;15.40;53.70
75719;DHT22;64340;48.534;-3.036;2023-02-13T15:45:05;15.50;54.00
75719;DHT22;64340;48.534;-3.036;2023-02-13T15:47:37;15.60;54.00
75719;DHT22;64340;48.534;-3.036;2023-02-13T15:50:03;15.60;54.00
75719;DHT22;64340;48.534;-3.036;2023-02-13T15:52:30;15.60;54.00
75719;DHT22;64340;48.534;-3.036;2023-02-13T15:54:56;15.60;53.90
75719;DHT22;64340;48.534;-3.036;2023-02-13T15:57:22;15.40;54.10
75719;DHT22;64340;48.534;-3.036;2023-02-13T15:59:49;15.20;54.40
75719;DHT22;64340;48.534;-3.036;2023-02-13T16:02:35;15.00;55.00
75719;DHT22;64340;48.534;-3.036;2023-02-13T16:05:03;14.80;55.50
75719;DHT22;64340;48.534;-3.036;2023-02-13T16:07:44;14.80;55.90
75719;DHT22;64340;48.534;-3.036;2023-02-13T16:10:14;15.00;55.50
75719;DHT22;64340;48.534;-3.036;2023-02-13T16:12:46;14.90;55.90
75719;DHT22;64340;48.534;-3.036;2023-02-13T16:15:16;14.90;56.00
75719;DHT22;64340;48.534;-3.036;2023-02-13T16:17:42;15.20;55.50
75719;DHT22;64340;48.534;-3.036;2023-02-13T16:20:19;15.30;55.30
75719;DHT22;64340;48.534;-3.036;2023-02-13T16:22:46;15.40;55.30
75719;DHT22;64340;48.534;-3.036;2023-02-13T16:27:58;15.60;55.30
75719;DHT22;64340;48.534;-3.036;2023-02-13T16:30:34;15.60;55.50
75719;DHT22;64340;48.534;-3.036;2023-02-13T16:38:25;15.70;55.50
75719;DHT22;64340;48.534;-3.036;2023-02-13T16:40:52;15.60;55.00
75719;DHT22;64340;48.534;-3.036;2023-02-13T16:43:35;15.60;55.40
75719;DHT22;64340;48.534;-3.036;2023-02-13T16:46:11;15.60;55.70
75719;DHT22;64340;48.534;-3.036;2023-02-13T16:48:37;15.60;55.70
75719;DHT22;64340;48.534;-3.036;2023-02-13T16:51:03;15.70;55.80
75719;DHT22;64340;48.534;-3.036;2023-02-13T16:53:28;15.70;55.90
75719;DHT22;64340;48.534;-3.036;2023-02-13T16:56:00;15.70;56.20
75719;DHT22;64340;48.534;-3.036;2023-02-13T16:58:26;15.80;56.00
75719;DHT22;64340;48.534;-3.036;2023-02-13T17:00:52;15.80;55.90
75719;DHT22;64340;48.534;-3.036;2023-02-13T17:03:18;15.80;55.90
75719;DHT22;64340;48.534;-3.036;2023-02-13T17:05:43;15.90;55.80
75719;DHT22;64340;48.534;-3.036;2023-02-13T17:08:09;16.00;55.80
75719;DHT22;64340;48.534;-3.036;2023-02-13T17:10:35;16.00;55.50
75719;DHT22;64340;48.534;-3.036;2023-02-13T17:13:05;15.60;54.00
75719;DHT22;64340;48.534;-3.036;2023-02-13T17:15:36;15.60;55.00
75719;DHT22;64340;48.534;-3.036;2023-02-13T17:18:05;15.80;55.80
75719;DHT22;64340;48.534;-3.036;2023-02-13T17:20:31;15.90;55.80
75719;DHT22;64340;48.534;-3.036;2023-02-13T17:22:58;15.90;55.80
75719;DHT22;64340;48.534;-3.036;2023-02-13T17:25:27;16.00;55.80
75719;DHT22;64340;48.534;-3.036;2023-02-13T17:27:54;16.00;55.80
75719;DHT22;64340;48.534;-3.036;2023-02-13T17:30:21;16.00;56.00
75719;DHT22;64340;48.534;-3.036;2023-02-13T17:32:47;16.00;55.90
75719;DHT22;64340;48.534;-3.036;2023-02-13T17:35:14;16.00;56.00
75719;DHT22;64340;48.534;-3.036;2023-02-13T17:37:40;16.00;56.00
75719;DHT22;64340;48.534;-3.036;2023-02-13T17:40:07;16.10;56.00
75719;DHT22;64340;48.534;-3.036;2023-02-13T17:42:32;16.10;56.10
75719;DHT22;64340;48.534;-3.036;2023-02-13T17:44:58;16.10;56.10
75719;DHT22;64340;48.534;-3.036;2023-02-13T17:47:24;16.10;56.00
75719;DHT22;64340;48.534;-3.036;2023-02-13T17:49:50;16.10;56.00
75719;DHT22;64340;48.534;-3.036;2023-02-13T17:52:17;16.10;56.10